Time;durP1;ratioP1;P1;durP2;ratioP2;P2;SDS_P1;SDS_P2;PMS_P1;PMS_P2;Temp;Humidity;BMP_temperature;BMP_pressure;BME280_temperature;BME280_humidity;BME280_pressure;Samples;Min_cycle;Max_cycle;Signal;HPM_P1;HPM_P2
2022/10/04 00:01:10;;;;;;;4.35;1.23;;;19.90;99.90;;;;;;5061432;28;20496;-72
2022/10/04 00:03:52;;;;;;;4.10;1.00;;;19.80;99.90;;;;;;5059840;28;20063;-73
2022/10/04 00:06:22;;;;;;;5.97;1.67;;;19.90;99.90;;;;;;5057117;28;20555;-73
2022/10/04 00:09:10;;;;;;;4.65;1.13;;;19.90;99.90;;;;;;5063006;28;20039;-73
2022/10/04 00:11:41;;;;;;;4.57;1.20;;;19.90;99.90;;;;;;5058873;28;20081;-74
2022/10/04 00:14:13;;;;;;;7.70;1.45;;;19.80;99.90;;;;;;5066186;28;20040;-73
2022/10/04 00:16:40;;;;;;;4.22;1.48;;;19.80;99.90;;;;;;5061555;28;20419;-73
2022/10/04 00:19:18;;;;;;;5.53;1.60;;;19.90;99.90;;;;;;5063044;28;20033;-74
2022/10/04 00:22:07;;;;;;;9.48;2.10;;;19.90;99.90;;;;;;5055015;28;20060;-73
2022/10/04 00:24:34;;;;;;;5.00;1.50;;;19.80;99.90;;;;;;5046907;28;20511;-73
2022/10/04 00:27:21;;;;;;;3.85;1.42;;;19.80;99.90;;;;;;5063713;28;20087;-73
2022/10/04 00:30:02;;;;;;;4.38;1.20;;;19.80;99.90;;;;;;5063981;28;20500;-73
2022/10/04 00:32:38;;;;;;;4.05;1.10;;;19.90;99.90;;;;;;5034642;28;20102;-72
2022/10/04 00:35:23;;;;;;;3.47;1.48;;;19.80;99.90;;;;;;5043885;28;20543;-73
2022/10/04 00:37:56;;;;;;;3.60;1.52;;;19.70;99.90;;;;;;5042738;28;20048;-72
2022/10/04 00:40:25;;;;;;;4.50;1.40;;;19.70;99.90;;;;;;5036095;28;20043;-73
2022/10/04 00:43:26;;;;;;;5.22;1.40;;;19.80;99.90;;;;;;5051468;28;20029;-73
2022/10/04 00:46:04;;;;;;;4.22;1.58;;;19.80;99.90;;;;;;5028297;28;20087;-74
2022/10/04 00:48:33;;;;;;;6.97;1.63;;;19.80;99.90;;;;;;5062624;28;20051;-73
2022/10/04 00:51:11;;;;;;;3.63;1.20;;;19.70;99.90;;;;;;5057827;28;20481;-73
2022/10/04 00:53:57;;;;;;;5.10;1.58;;;19.80;99.90;;;;;;5055403;28;20110;-73
2022/10/04 00:57:02;;;;;;;4.30;1.30;;;19.70;99.90;;;;;;5061104;28;20043;-72
2022/10/04 00:59:33;;;;;;;6.10;1.83;;;19.70;99.90;;;;;;5053306;28;20480;-73
2022/10/04 01:02:16;;;;;;;5.72;1.40;;;19.70;99.90;;;;;;5050415;28;20112;-72
2022/10/04 01:04:54;;;;;;;5.55;1.70;;;19.60;99.90;;;;;;5036057;28;20033;-73
2022/10/04 01:07:42;;;;;;;3.83;1.48;;;19.70;99.90;;;;;;5057573;28;20627;-73
2022/10/04 01:10:21;;;;;;;5.50;1.48;;;19.60;99.90;;;;;;5056919;28;20357;-73
2022/10/04 01:13:14;;;;;;;5.57;1.45;;;19.60;99.90;;;;;;5058411;28;20510;-73
2022/10/04 01:16:01;;;;;;;5.25;1.90;;;19.60;99.90;;;;;;5053428;28;20060;-72
2022/10/04 01:18:29;;;;;;;6.65;1.63;;;19.70;99.90;;;;;;5043963;28;20128;-73
2022/10/04 01:21:08;;;;;;;6.28;1.67;;;19.60;99.90;;;;;;5028048;28;20103;-74
2022/10/04 01:23:33;;;;;;;7.30;1.50;;;19.70;99.90;;;;;;5041549;28;20022;-72
2022/10/04 01:26:00;;;;;;;4.32;1.80;;;19.70;99.90;;;;;;5042692;28;20041;-72
2022/10/04 01:28:26;;;;;;;5.05;1.38;;;19.60;99.90;;;;;;5038238;28;20037;-73
2022/10/04 01:30:53;;;;;;;3.72;1.50;;;19.60;99.90;;;;;;5035107;28;20029;-72
2022/10/04 01:33:19;;;;;;;9.00;2.20;;;19.60;99.90;;;;;;5037534;28;20068;-73
2022/10/04 01:35:47;;;;;;;6.10;2.30;;;19.60;99.90;;;;;;5040020;28;20497;-73
2022/10/04 01:38:13;;;;;;;5.68;1.67;;;19.60;99.90;;;;;;5070825;28;20835;-72
2022/10/04 01:40:54;;;;;;;4.70;1.98;;;19.60;99.90;;;;;;5056317;28;20071;-72
2022/10/04 01:43:28;;;;;;;6.03;2.20;;;19.60;99.90;;;;;;5054802;28;20042;-73
2022/10/04 01:46:01;;;;;;;8.60;2.60;;;19.60;99.90;;;;;;5065235;28;20056;-74
2022/10/04 01:48:34;;;;;;;5.72;2.08;;;19.60;99.90;;;;;;5058176;28;20033;-74
2022/10/04 01:51:16;;;;;;;7.85;2.80;;;19.60;99.90;;;;;;5060115;28;20091;-74
2022/10/04 01:53:52;;;;;;;6.72;2.95;;;19.50;99.90;;;;;;5050914;28;20064;-74
2022/10/04 01:56:22;;;;;;;5.20;2.13;;;19.50;99.90;;;;;;5063372;28;20067;-74
2022/10/04 01:58:57;;;;;;;5.90;2.20;;;19.50;99.90;;;;;;5056961;28;20039;-75
2022/10/04 02:01:42;;;;;;;4.45;1.88;;;19.50;99.90;;;;;;5060128;28;20052;-74
2022/10/04 02:04:11;;;;;;;;;;;19.50;99.90;;;;;;5063389;28;20065;-74
2022/10/04 02:06:40;;;;;;;5.80;2.20;;;19.50;99.90;;;;;;5057102;28;20344;-75
2022/10/04 02:09:13;;;;;;;5.30;2.10;;;19.50;99.90;;;;;;5057984;28;20361;-75
2022/10/04 02:11:42;;;;;;;4.50;2.22;;;19.50;99.90;;;;;;5057922;28;20039;-74
2022/10/04 02:14:15;;;;;;;5.78;2.15;;;19.50;99.90;;;;;;5057384;28;20043;-74
2022/10/04 02:16:44;;;;;;;4.15;2.00;;;19.60;99.90;;;;;;5057735;28;20037;-76
2022/10/04 02:19:11;;;;;;;6.57;2.20;;;19.60;99.90;;;;;;5061005;28;20040;-77
2022/10/04 02:21:38;;;;;;;7.50;2.55;;;19.60;99.90;;;;;;5058959;28;20032;-77
2022/10/04 02:24:07;;;;;;;3.95;1.77;;;19.60;99.90;;;;;;5062417;28;20044;-77
2022/10/04 02:26:33;;;;;;;5.05;2.42;;;19.60;99.90;;;;;;5063735;28;20459;-78
2022/10/04 02:28:58;;;;;;;5.63;2.22;;;19.60;99.90;;;;;;5058571;28;20124;-77
2022/10/04 02:34:11;;;;;;;4.47;2.03;;;19.60;99.90;;;;;;5058120;28;20090;-78
2022/10/04 02:36:39;;;;;;;5.57;2.20;;;19.60;99.90;;;;;;5065353;28;20054;-77
2022/10/04 02:39:15;;;;;;;6.53;2.60;;;19.60;99.90;;;;;;5059969;28;20060;-77
2022/10/04 02:41:47;;;;;;;6.05;2.50;;;19.60;99.90;;;;;;5059786;28;20106;-77
2022/10/04 02:44:39;;;;;;;6.43;2.50;;;19.60;99.90;;;;;;5054795;28;20121;-77
2022/10/04 02:47:11;;;;;;;5.70;1.90;;;19.60;99.90;;;;;;5055060;28;20561;-76
2022/10/04 02:49:40;;;;;;;;;;;19.60;99.90;;;;;;5056025;28;20092;-77
2022/10/04 02:52:30;;;;;;;5.18;1.85;;;19.70;99.90;;;;;;5056002;28;20355;-77
2022/10/04 02:55:09;;;;;;;4.50;1.88;;;19.60;99.90;;;;;;5060149;28;20093;-77
2022/10/04 02:57:35;;;;;;;;;;;19.60;99.90;;;;;;5036049;28;20045;-77
2022/10/04 03:00:11;;;;;;;5.40;1.95;;;19.60;99.90;;;;;;5042562;28;20434;-77
2022/10/04 03:02:38;;;;;;;5.50;1.92;;;19.50;99.90;;;;;;5037713;28;20042;-76
2022/10/04 03:05:12;;;;;;;4.75;2.95;;;19.50;99.90;;;;;;5040240;28;20492;-76
2022/10/04 03:07:39;;;;;;;5.13;2.33;;;19.40;99.90;;;;;;5046857;28;20052;-77
2022/10/04 03:10:11;;;;;;;5.63;2.50;;;19.40;99.90;;;;;;5059229;28;20353;-77
2022/10/04 03:12:41;;;;;;;6.47;2.30;;;19.40;99.90;;;;;;5067601;28;20404;-77
2022/10/04 03:15:10;;;;;;;6.03;2.72;;;19.50;99.90;;;;;;5063226;28;20523;-77
2022/10/04 03:17:39;;;;;;;6.03;2.90;;;19.40;99.90;;;;;;5062425;28;20037;-77
2022/10/04 03:20:08;;;;;;;5.50;2.90;;;19.50;99.90;;;;;;5082780;28;20048;-77
2022/10/04 03:22:35;;;;;;;5.45;2.63;;;19.40;99.90;;;;;;5064841;28;20144;-77
2022/10/04 03:25:00;;;;;;;8.05;4.00;;;19.40;99.90;;;;;;5070566;28;20052;-77
2022/10/04 03:27:33;;;;;;;8.63;3.80;;;19.50;99.90;;;;;;5065004;28;20048;-76
2022/10/04 03:30:00;;;;;;;6.35;4.15;;;19.40;99.90;;;;;;5062542;28;20060;-76
2022/10/04 03:32:31;;;;;;;7.78;3.90;;;19.40;99.90;;;;;;5065576;28;20086;-77
2022/10/04 03:35:03;;;;;;;8.73;4.28;;;19.40;99.90;;;;;;5064698;28;20106;-75
2022/10/04 03:37:35;;;;;;;9.35;3.65;;;19.40;99.90;;;;;;5056512;28;20044;-77
2022/10/04 03:40:02;;;;;;;7.18;4.55;;;19.30;99.90;;;;;;5063726;28;20044;-76
2022/10/04 03:42:33;;;;;;;7.43;3.90;;;19.30;99.90;;;;;;5046749;28;20059;-77
2022/10/04 03:45:12;;;;;;;7.03;3.90;;;19.30;99.90;;;;;;5070432;28;20106;-76
2022/10/04 03:47:43;;;;;;;9.32;3.70;;;19.30;99.90;;;;;;5078206;28;20435;-77
2022/10/04 03:50:24;;;;;;;5.68;2.95;;;19.20;99.90;;;;;;5065360;28;20044;-76
2022/10/04 03:52:57;;;;;;;6.78;3.22;;;19.30;99.90;;;;;;5075870;28;20064;-77
2022/10/04 03:55:30;;;;;;;6.35;3.65;;;19.30;99.90;;;;;;5063771;28;20037;-76
2022/10/04 03:57:59;;;;;;;9.65;4.32;;;19.30;99.90;;;;;;5064780;28;20078;-77
2022/10/04 04:00:25;;;;;;;7.57;3.75;;;19.30;99.90;;;;;;5065416;28;20671;-76
2022/10/04 04:02:57;;;;;;;10.32;4.32;;;19.30;99.90;;;;;;5067483;28;20072;-77
2022/10/04 04:05:52;;;;;;;9.02;4.38;;;19.30;99.90;;;;;;5062533;28;20060;-76
2022/10/04 04:08:28;;;;;;;9.10;4.20;;;19.30;99.90;;;;;;5061665;28;20032;-77
2022/10/04 04:10:58;;;;;;;8.90;4.93;;;19.30;99.90;;;;;;5065000;28;20041;-77
2022/10/04 04:13:43;;;;;;;18.92;11.13;;;19.30;99.90;;;;;;5062309;28;20057;-77
2022/10/04 04:16:11;;;;;;;9.90;6.35;;;19.20;99.90;;;;;;5063359;28;20499;-77
2022/10/04 04:18:42;;;;;;;12.63;7.30;;;19.20;99.90;;;;;;5062908;28;20028;-77
2022/10/04 04:21:11;;;;;;;13.07;6.88;;;19.20;99.90;;;;;;5061042;28;20037;-77
2022/10/04 04:23:47;;;;;;;12.50;7.15;;;19.10;99.90;;;;;;5063876;28;20147;-77
2022/10/04 04:26:16;;;;;;;11.32;7.43;;;19.10;99.90;;;;;;5058687;28;20037;-77
2022/10/04 04:29:07;;;;;;;14.73;8.23;;;19.10;99.90;;;;;;5079851;28;20048;-76
2022/10/04 04:31:48;;;;;;;11.57;8.00;;;19.10;99.90;;;;;;5054685;28;20242;-77
2022/10/04 04:34:28;;;;;;;12.73;7.78;;;19.10;99.90;;;;;;5072098;28;20049;-77
2022/10/04 04:37:00;;;;;;;12.80;8.45;;;19.10;99.90;;;;;;5078697;28;20029;-77
2022/10/04 04:40:02;;;;;;;14.40;9.90;;;19.10;99.90;;;;;;5061232;28;20426;-77
2022/10/04 04:42:30;;;;;;;14.38;9.70;;;19.00;99.90;;;;;;5058342;28;20037;-78
2022/10/04 04:45:20;;;;;;;14.90;9.98;;;19.00;99.90;;;;;;5077897;28;20458;-77
2022/10/04 04:47:52;;;;;;;17.95;10.88;;;19.00;99.90;;;;;;5060794;28;20056;-77
2022/10/04 04:50:24;;;;;;;14.85;8.63;;;19.00;99.90;;;;;;5060199;28;20045;-76
2022/10/04 04:52:59;;;;;;;12.82;7.95;;;19.10;99.90;;;;;;5060812;28;20116;-77
2022/10/04 04:55:33;;;;;;;13.73;6.35;;;19.00;99.90;;;;;;5062015;28;21002;-77
2022/10/04 04:57:59;;;;;;;14.77;6.07;;;19.10;99.90;;;;;;5057776;28;20029;-77
2022/10/04 05:00:32;;;;;;;9.52;6.20;;;19.10;99.90;;;;;;5066502;28;20044;-77
2022/10/04 05:03:01;;;;;;;12.05;7.68;;;19.10;99.90;;;;;;5059227;28;20878;-77
2022/10/04 05:05:30;;;;;;;12.70;7.40;;;19.00;99.90;;;;;;5057332;28;20036;-78
2022/10/04 05:08:27;;;;;;;9.07;5.18;;;19.00;99.90;;;;;;5074667;28;20136;-77
2022/10/04 05:10:57;;;;;;;9.05;5.47;;;19.00;99.90;;;;;;5065172;28;20036;-77
2022/10/04 05:13:47;;;;;;;8.18;4.95;;;19.00;99.90;;;;;;5077988;28;20040;-77
2022/10/04 05:16:25;;;;;;;7.15;3.90;;;18.90;99.90;;;;;;5081389;28;20598;-78
2022/10/04 05:19:01;;;;;;;10.23;4.28;;;19.00;99.90;;;;;;5061991;28;20105;-78
2022/10/04 05:21:30;;;;;;;7.18;3.42;;;19.00;99.90;;;;;;5060924;28;20560;-78
2022/10/04 05:24:06;;;;;;;12.13;3.75;;;19.00;99.90;;;;;;5066524;28;20128;-77
2022/10/04 05:26:32;;;;;;;8.13;3.35;;;19.00;99.90;;;;;;5062548;28;20048;-78
2022/10/04 05:29:10;;;;;;;6.40;2.80;;;18.90;99.90;;;;;;5065787;28;20033;-77
2022/10/04 05:31:48;;;;;;;4.78;2.50;;;19.00;99.90;;;;;;5061168;28;20086;-77
2022/10/04 05:34:27;;;;;;;7.63;3.03;;;19.00;99.90;;;;;;5070514;28;20037;-76
2022/10/04 05:37:18;;;;;;;11.75;3.40;;;19.00;99.90;;;;;;5079190;28;20060;-77
2022/10/04 05:40:10;;;;;;;7.18;3.33;;;19.00;99.90;;;;;;5055810;28;20112;-77
2022/10/04 05:42:46;;;;;;;7.95;3.20;;;18.90;99.90;;;;;;5040268;28;20507;-77
2022/10/04 05:45:27;;;;;;;7.00;2.53;;;18.90;99.90;;;;;;5042937;28;20046;-77
2022/10/04 05:47:59;;;;;;;5.47;2.40;;;18.90;99.90;;;;;;5041946;28;20037;-76
2022/10/04 05:50:47;;;;;;;5.95;2.42;;;18.90;99.90;;;;;;5056242;28;20385;-77
2022/10/04 05:53:34;;;;;;;8.65;2.67;;;18.90;99.90;;;;;;5058002;28;20056;-78
2022/10/04 05:56:21;;;;;;;9.88;3.13;;;18.90;99.90;;;;;;5060313;28;20048;-77
2022/10/04 05:59:17;;;;;;;7.70;2.72;;;18.90;99.90;;;;;;5061570;28;20037;-77
2022/10/04 06:02:06;;;;;;;11.98;4.95;;;18.90;99.90;;;;;;5073330;28;20052;-77
2022/10/04 06:04:44;;;;;;;8.77;2.90;;;18.90;99.90;;;;;;5047983;28;20035;-78
2022/10/04 06:07:38;;;;;;;7.15;2.92;;;18.90;99.90;;;;;;5056177;28;20404;-77
2022/10/04 06:10:24;;;;;;;6.97;2.72;;;18.90;99.90;;;;;;5058452;28;20803;-77
2022/10/04 06:13:29;;;;;;;5.75;2.83;;;19.00;99.90;;;;;;5058839;28;20028;-77
2022/10/04 06:16:22;;;;;;;11.23;3.10;;;19.00;99.90;;;;;;5058356;28;20811;-77
2022/10/04 06:19:09;;;;;;;7.80;2.90;;;19.10;99.90;;;;;;5055280;28;20862;-79
2022/10/04 06:22:15;;;;;;;6.60;2.85;;;19.20;99.90;;;;;;5062803;28;20066;-78
2022/10/04 06:24:48;;;;;;;7.97;3.42;;;19.30;99.90;;;;;;5067222;28;20119;-77
2022/10/04 06:27:18;;;;;;;;;;;19.40;99.90;;;;;;5077518;28;20116;-78
2022/10/04 06:30:11;;;;;;;5.50;2.42;;;19.50;99.90;;;;;;5059884;28;19916;-77
2022/10/04 06:32:49;;;;;;;9.73;2.22;;;19.50;99.90;;;;;;5041292;28;20708;-77
2022/10/04 06:35:22;;;;;;;4.53;1.92;;;19.60;99.90;;;;;;5038111;28;20105;-77
2022/10/04 06:38:07;;;;;;;6.80;1.88;;;19.70;99.90;;;;;;5071833;28;20051;-77
2022/10/04 06:40:43;;;;;;;6.10;2.30;;;19.70;99.90;;;;;;5044058;28;20116;-78
2022/10/04 06:43:34;;;;;;;10.48;2.20;;;19.80;99.90;;;;;;5040865;28;20041;-78
2022/10/04 06:46:35;;;;;;;7.35;2.20;;;19.90;99.90;;;;;;5038785;28;20045;-78
2022/10/04 06:49:33;;;;;;;10.57;2.05;;;19.90;99.90;;;;;;5070276;28;20047;-77
2022/10/04 06:52:10;;;;;;;6.80;1.92;;;20.00;99.90;;;;;;5053327;28;20044;-77
2022/10/04 06:55:14;;;;;;;4.65;1.55;;;20.00;99.90;;;;;;5062421;28;20025;-77
2022/10/04 06:57:59;;;;;;;5.95;1.92;;;20.10;99.90;;;;;;5056506;28;20374;-77
2022/10/04 07:00:25;;;;;;;;;;;20.20;99.90;;;;;;5062458;28;20037;-77
2022/10/04 07:03:03;;;;;;;4.97;1.77;;;20.20;99.90;;;;;;5050094;28;20356;-76
2022/10/04 07:05:55;;;;;;;7.55;2.30;;;20.30;99.90;;;;;;5052204;28;20043;-78
2022/10/04 07:08:46;;;;;;;6.65;1.90;;;20.40;99.90;;;;;;5049559;28;20052;-77
2022/10/04 07:11:22;;;;;;;19.48;9.00;;;20.50;99.90;;;;;;5057863;28;20037;-77
2022/10/04 07:13:57;;;;;;;10.07;5.10;;;20.60;99.90;;;;;;5058926;28;20033;-77
2022/10/04 07:16:48;;;;;;;5.30;2.00;;;20.60;99.90;;;;;;5044934;28;20131;-77
2022/10/04 07:19:29;;;;;;;5.63;1.70;;;20.70;99.90;;;;;;5047013;28;20044;-77
2022/10/04 07:22:06;;;;;;;6.43;1.95;;;20.70;99.90;;;;;;5045217;28;20037;-76
2022/10/04 07:24:55;;;;;;;6.47;2.20;;;20.70;99.90;;;;;;5041914;28;20374;-77
2022/10/04 07:27:28;;;;;;;9.88;2.20;;;20.80;99.90;;;;;;5048233;28;20041;-76
2022/10/04 07:29:57;;;;;;;4.72;1.55;;;20.80;99.90;;;;;;5061166;28;20028;-77
2022/10/04 07:32:30;;;;;;;5.15;1.80;;;20.90;99.90;;;;;;5054425;28;20124;-76
2022/10/04 07:34:59;;;;;;;4.43;1.65;;;20.90;99.90;;;;;;5058117;28;20463;-76
2022/10/04 07:37:27;;;;;;;5.85;1.67;;;21.00;99.90;;;;;;5043283;28;20037;-77
2022/10/04 07:40:23;;;;;;;6.32;1.80;;;21.00;99.90;;;;;;5061573;28;20051;-76
2022/10/04 07:43:13;;;;;;;4.75;1.50;;;21.00;99.90;;;;;;5040543;28;20029;-77
2022/10/04 07:45:40;;;;;;;8.10;1.83;;;21.10;99.90;;;;;;5053438;28;20051;-77
2022/10/04 07:48:23;;;;;;;4.05;1.88;;;21.10;99.90;;;;;;5045383;28;20111;-78
2022/10/04 07:51:13;;;;;;;5.82;2.10;;;21.20;99.90;;;;;;5058202;28;20041;-77
2022/10/04 07:53:51;;;;;;;8.57;2.03;;;21.30;99.90;;;;;;5075533;28;20048;-77
2022/10/04 07:56:25;;;;;;;6.68;2.00;;;21.30;99.90;;;;;;5047171;28;20553;-77
2022/10/04 07:59:17;;;;;;;5.97;2.60;;;21.30;99.90;;;;;;5060303;28;21099;-78
2022/10/04 08:02:13;;;;;;;13.18;3.63;;;21.30;99.90;;;;;;5052634;28;20049;-78
2022/10/04 08:05:11;;;;;;;6.10;2.80;;;21.40;99.90;;;;;;5056177;28;20072;-77
2022/10/04 08:07:37;;;;;;;7.95;2.13;;;21.50;99.90;;;;;;5078088;28;20110;-79
2022/10/04 08:10:17;;;;;;;5.95;1.75;;;21.40;99.90;;;;;;5050611;28;20130;-77
2022/10/04 08:12:55;;;;;;;6.85;2.30;;;21.50;99.90;;;;;;5055411;28;20116;-77
2022/10/04 08:15:24;;;;;;;;;;;21.50;99.90;;;;;;5047524;28;20512;-77
2022/10/04 08:18:05;;;;;;;8.60;1.90;;;21.70;99.90;;;;;;5065571;28;19913;-77
2022/10/04 08:20:47;;;;;;;6.88;1.92;;;22.00;99.90;;;;;;5041460;28;20531;-78
2022/10/04 08:23:34;;;;;;;5.38;1.80;;;22.20;99.90;;;;;;5043166;28;20045;-76
2022/10/04 08:26:18;;;;;;;5.28;1.60;;;22.20;99.90;;;;;;5041881;28;20048;-77
2022/10/04 08:32:00;;;;;;;6.70;2.00;;;22.40;99.90;;;;;;5034248;28;20035;-76
2022/10/04 08:34:50;;;;;;;6.25;1.55;;;22.50;99.90;;;;;;5058179;28;20171;-77
2022/10/04 08:37:32;;;;;;;6.90;2.00;;;22.60;99.90;;;;;;5061604;28;20036;-77
2022/10/04 08:40:10;;;;;;;6.53;1.80;;;22.80;99.90;;;;;;5067186;28;20057;-77
2022/10/04 08:43:02;;;;;;;5.15;1.60;;;22.90;99.90;;;;;;5040155;28;20040;-78
2022/10/04 08:45:47;;;;;;;5.10;2.20;;;23.20;99.90;;;;;;5047777;28;20076;-78
2022/10/04 08:48:44;;;;;;;5.35;1.63;;;23.30;99.90;;;;;;5059378;28;20045;-77
2022/10/04 08:51:27;;;;;;;;;;;23.40;99.90;;;;;;5057364;28;20090;-77
2022/10/04 08:54:45;;;;;;;7.03;1.80;;;23.50;99.90;;;;;;5061495;28;20241;-77
2022/10/04 08:57:45;;;;;;;5.82;1.75;;;23.60;99.90;;;;;;5037670;28;20084;-77
2022/10/04 09:00:32;;;;;;;6.97;1.95;;;23.70;99.90;;;;;;5072417;28;20037;-77
2022/10/04 09:03:01;;;;;;;6.75;2.13;;;24.00;99.90;;;;;;5063645;28;20523;-77
2022/10/04 09:05:33;;;;;;;5.38;1.65;;;24.20;99.90;;;;;;5076627;28;20047;-77
2022/10/04 09:08:17;;;;;;;6.00;1.70;;;24.30;99.90;;;;;;5064517;28;20040;-77
2022/10/04 09:11:09;;;;;;;6.63;1.85;;;24.30;99.90;;;;;;5059973;28;20704;-77
2022/10/04 09:13:59;;;;;;;10.73;2.03;;;24.20;99.90;;;;;;5040239;28;20026;-78
2022/10/04 09:16:47;;;;;;;5.82;1.88;;;24.10;99.90;;;;;;5069909;28;20638;-77
2022/10/04 09:19:49;;;;;;;7.15;2.05;;;24.10;99.90;;;;;;5041435;28;20042;-78
2022/10/04 09:22:25;;;;;;;7.25;2.25;;;24.10;99.90;;;;;;5074417;28;20093;-78
2022/10/04 09:25:02;;;;;;;6.47;1.50;;;24.00;99.90;;;;;;5055401;28;20037;-78
2022/10/04 09:28:09;;;;;;;4.18;1.42;;;24.20;99.90;;;;;;5050277;28;20037;-78
2022/10/04 09:31:13;;;;;;;7.38;1.70;;;24.30;99.90;;;;;;5048234;28;20040;-78
2022/10/04 09:34:10;;;;;;;5.25;1.75;;;24.50;99.90;;;;;;4999619;28;20075;-77
2022/10/04 09:36:54;;;;;;;5.22;1.95;;;24.60;99.90;;;;;;5065423;28;20060;-78
2022/10/04 09:39:40;;;;;;;6.53;1.52;;;24.80;99.90;;;;;;5054516;28;20117;-77
2022/10/04 09:42:44;;;;;;;5.18;1.50;;;24.80;99.90;;;;;;5073143;28;20064;-78
2022/10/04 09:45:10;;;;;;;5.35;1.80;;;24.70;99.90;;;;;;5057606;28;20048;-78
2022/10/04 09:48:07;;;;;;;5.78;1.85;;;24.90;99.90;;;;;;5063582;28;20040;-78
2022/10/04 09:51:07;;;;;;;8.30;1.88;;;25.10;99.90;;;;;;5054122;28;20135;-77
2022/10/04 09:53:57;;;;;;;5.97;1.50;;;25.10;99.90;;;;;;5064932;28;20052;-77
2022/10/04 09:56:52;;;;;;;6.25;1.83;;;25.00;99.90;;;;;;5036097;28;20174;-76
2022/10/04 09:59:35;;;;;;;6.65;1.60;;;25.40;99.90;;;;;;5042335;28;20040;-78
2022/10/04 10:02:29;;;;;;;7.38;1.90;;;25.60;99.90;;;;;;5037619;28;20048;-78
2022/10/04 10:05:21;;;;;;;4.78;1.50;;;25.70;99.90;;;;;;5038054;28;20030;-77
2022/10/04 10:08:08;;;;;;;5.40;1.80;;;25.60;99.90;;;;;;5033776;28;20037;-78
2022/10/04 10:13:50;;;;;;;3.83;1.60;;;26.00;99.90;;;;;;5054542;28;20158;-77
2022/10/04 10:16:33;;;;;;;3.83;1.90;;;26.10;99.90;;;;;;5056389;28;20053;-77
2022/10/04 10:19:20;;;;;;;4.78;1.45;;;26.40;99.90;;;;;;5056432;28;20120;-77
2022/10/04 10:21:57;;;;;;;5.45;1.98;;;26.90;99.90;;;;;;5043228;28;20037;-77
2022/10/04 10:24:42;;;;;;;5.40;1.67;;;27.30;99.50;;;;;;5036654;28;20199;-77
2022/10/04 10:27:30;;;;;;;6.43;1.80;;;27.60;98.40;;;;;;5058220;28;20058;-77
2022/10/04 10:30:14;;;;;;;6.03;2.28;;;28.10;98.30;;;;;;5060674;28;20051;-77
2022/10/04 10:33:07;;;;;;;7.93;2.30;;;28.40;98.00;;;;;;5042358;28;20465;-77
2022/10/04 10:36:21;;;;;;;4.57;2.83;;;28.60;97.80;;;;;;5061649;28;20173;-77
2022/10/04 10:38:56;;;;;;;6.47;3.05;;;28.60;97.60;;;;;;5034868;28;20080;-78
2022/10/04 10:41:37;;;;;;;5.85;1.90;;;28.80;97.70;;;;;;5078655;28;20114;-77
2022/10/04 10:44:25;;;;;;;4.68;1.75;;;28.70;97.70;;;;;;5049789;28;20432;-78
2022/10/04 10:47:21;;;;;;;4.50;2.03;;;28.80;97.60;;;;;;5064779;28;20033;-78
2022/10/04 10:50:01;;;;;;;6.57;1.90;;;29.30;97.20;;;;;;5039798;28;20043;-78
2022/10/04 10:53:10;;;;;;;6.45;1.95;;;29.50;96.40;;;;;;5035963;28;20098;-78
2022/10/04 10:55:42;;;;;;;4.55;1.65;;;29.50;96.30;;;;;;5049298;28;20139;-76
2022/10/04 10:58:45;;;;;;;3.90;1.80;;;29.40;96.30;;;;;;5045749;28;20036;-78
2022/10/04 11:01:48;;;;;;;4.15;1.63;;;29.00;95.90;;;;;;5058732;28;20047;-78
2022/10/04 11:04:54;;;;;;;4.22;1.42;;;29.50;95.10;;;;;;5037397;28;20037;-78
2022/10/04 11:07:49;;;;;;;5.47;1.80;;;29.30;94.30;;;;;;5040366;28;20043;-78
2022/10/04 11:10:34;;;;;;;3.63;1.20;;;29.10;95.10;;;;;;5056723;28;20047;-78
2022/10/04 11:13:47;;;;;;;6.03;1.48;;;29.30;94.80;;;;;;5074507;28;20097;-78
2022/10/04 11:16:33;;;;;;;21.17;13.68;;;29.60;94.50;;;;;;5037499;28;21077;-78
2022/10/04 11:19:31;;;;;;;4.85;2.10;;;29.80;94.30;;;;;;5041654;28;20029;-77
2022/10/04 11:22:35;;;;;;;5.57;1.98;;;30.30;93.70;;;;;;5041466;28;20129;-78
2022/10/04 11:25:12;;;;;;;4.20;1.42;;;30.40;93.20;;;;;;5061233;28;20047;-78
2022/10/04 11:28:01;;;;;;;8.35;1.45;;;30.00;92.80;;;;;;5058257;28;20082;-78
2022/10/04 11:30:52;;;;;;;3.60;1.80;;;30.00;93.00;;;;;;5046644;28;20121;-79
2022/10/04 11:34:11;;;;;;;3.65;1.20;;;29.20;93.40;;;;;;5059807;28;20125;-77
2022/10/04 11:36:43;;;;;;;5.38;1.63;;;29.80;93.00;;;;;;5006608;28;20049;-77
2022/10/04 11:39:35;;;;;;;;;;;30.30;93.10;;;;;;5076179;28;20569;-79
2022/10/04 11:42:04;;;;;;;5.07;1.83;;;30.60;92.50;;;;;;5070216;28;20137;-80
2022/10/04 11:44:59;;;;;;;5.25;1.50;;;31.20;92.20;;;;;;5059043;28;26752;-79
2022/10/04 11:47:39;;;;;;;4.57;1.70;;;30.80;92.20;;;;;;5061049;28;20048;-79
2022/10/04 11:50:21;;;;;;;3.40;1.35;;;30.00;92.70;;;;;;5066553;28;20032;-82
2022/10/04 11:53:20;;;;;;;4.75;2.17;;;30.60;92.70;;;;;;5063352;28;20094;-78
2022/10/04 11:56:05;;;;;;;3.08;1.60;;;30.40;92.70;;;;;;5045583;28;20037;-79
2022/10/04 11:59:05;;;;;;;3.78;1.60;;;30.70;92.40;;;;;;5043887;28;20048;-79
2022/10/04 12:02:01;;;;;;;4.55;2.08;;;31.40;92.00;;;;;;5049323;28;20132;-78
2022/10/04 12:05:00;;;;;;;5.72;2.10;;;31.50;91.40;;;;;;5062287;28;20465;-79
2022/10/04 12:07:25;;;;;;;3.25;1.75;;;31.60;91.30;;;;;;5043678;28;20031;-79
2022/10/04 12:10:12;;;;;;;5.43;1.92;;;31.90;90.90;;;;;;5075723;28;20029;-78
2022/10/04 12:13:04;;;;;;;6.18;2.75;;;31.40;91.00;;;;;;5050684;28;20068;-79
2022/10/04 12:15:44;;;;;;;3.25;1.48;;;31.40;91.30;;;;;;5065822;28;20028;-79
2022/10/04 12:18:13;;;;;;;4.72;2.17;;;30.90;91.30;;;;;;5060485;28;20092;-78
2022/10/04 12:20:57;;;;;;;4.50;2.10;;;31.40;91.00;;;;;;5066290;28;20492;-79
2022/10/04 12:23:47;;;;;;;4.85;1.77;;;31.50;90.90;;;;;;5074619;28;20131;-79
2022/10/04 12:26:31;;;;;;;4.03;1.55;;;31.20;90.90;;;;;;5066701;28;20037;-80
2022/10/04 12:29:09;;;;;;;4.90;2.58;;;31.90;90.90;;;;;;5066531;28;20036;-78
2022/10/04 12:32:07;;;;;;;4.95;2.05;;;31.60;90.90;;;;;;5047418;28;20037;-79
2022/10/04 12:34:58;;;;;;;5.43;1.73;;;31.40;91.10;;;;;;5050608;28;20025;-78
2022/10/04 12:38:02;;;;;;;4.43;2.28;;;31.70;90.80;;;;;;5078469;28;20028;-79
2022/10/04 12:40:45;;;;;;;4.70;1.75;;;31.10;90.90;;;;;;5048449;28;20102;-78
2022/10/04 12:43:29;;;;;;;4.35;1.73;;;30.80;90.90;;;;;;5052106;28;20043;-79
2022/10/04 12:46:05;;;;;;;5.68;2.33;;;31.40;90.50;;;;;;5064014;28;20115;-78
2022/10/04 12:48:55;;;;;;;4.32;2.00;;;32.00;90.30;;;;;;5058857;28;20049;-78
2022/10/04 12:51:45;;;;;;;5.60;2.00;;;32.80;90.00;;;;;;5080964;28;20067;-80
2022/10/04 12:54:32;;;;;;;15.68;12.60;;;33.40;88.00;;;;;;5049318;28;20037;-79
2022/10/04 12:57:09;;;;;;;6.18;3.45;;;33.80;88.10;;;;;;5050169;28;20041;-82
2022/10/04 12:59:47;;;;;;;7.63;3.65;;;34.30;86.70;;;;;;5081366;28;20033;-79
2022/10/04 13:02:35;;;;;;;4.88;2.33;;;34.80;86.30;;;;;;5058276;28;20032;-78
2022/10/04 13:05:16;;;;;;;5.25;2.45;;;34.60;85.80;;;;;;5069880;28;20041;-79
2022/10/04 13:08:21;;;;;;;4.18;2.38;;;34.50;84.70;;;;;;5037144;28;20029;-79
2022/10/04 13:10:50;;;;;;;5.28;2.42;;;34.60;83.60;;;;;;5029721;28;20044;-78
2022/10/04 13:13:53;;;;;;;5.25;2.45;;;34.30;83.70;;;;;;5045582;28;20115;-79
2022/10/04 13:16:41;;;;;;;5.65;3.45;;;34.10;84.60;;;;;;5051993;28;20029;-79
2022/10/04 13:19:23;;;;;;;5.50;2.92;;;34.90;84.40;;;;;;5068348;28;20154;-78
2022/10/04 13:22:09;;;;;;;5.18;2.50;;;34.40;83.30;;;;;;5064956;28;20029;-79
2022/10/04 13:24:54;;;;;;;4.35;2.40;;;34.70;83.80;;;;;;5059266;28;20044;-79
2022/10/04 13:27:26;;;;;;;5.03;2.28;;;34.80;83.50;;;;;;5060591;28;20033;-79
2022/10/04 13:30:12;;;;;;;4.50;2.53;;;35.00;83.60;;;;;;5071617;28;20049;-78
2022/10/04 13:33:02;;;;;;;4.05;1.63;;;34.90;83.50;;;;;;5051041;28;20116;-79
2022/10/04 13:35:40;;;;;;;4.53;1.88;;;34.20;84.10;;;;;;5075285;28;20029;-78
2022/10/04 13:38:25;;;;;;;4.03;2.03;;;33.60;84.80;;;;;;5053482;28;20475;-79
2022/10/04 13:41:23;;;;;;;5.10;1.83;;;33.90;84.80;;;;;;5081823;27;20029;-80
2022/10/04 13:44:07;;;;;;;9.13;2.38;;;33.70;84.40;;;;;;5067423;28;20066;-79
2022/10/04 13:46:55;;;;;;;6.03;2.08;;;33.90;84.10;;;;;;5070654;28;20037;-79
2022/10/04 13:49:43;;;;;;;4.78;1.67;;;33.80;84.00;;;;;;5057753;28;20056;-78
2022/10/04 13:58:29;;;;;;;7.07;2.08;;;34.70;83.60;;;;;;5048472;28;20052;-79
2022/10/04 14:01:19;;;;;;;7.85;2.50;;;35.10;83.70;;;;;;5058322;28;20035;-80
2022/10/04 14:03:51;;;;;;;4.80;2.65;;;35.40;83.30;;;;;;5043146;28;20101;-78
2022/10/04 14:06:17;;;;;;;;;;;35.30;83.10;;;;;;5036115;28;20047;-76
2022/10/04 14:09:09;;;;;;;4.50;2.30;;;35.60;83.20;;;;;;5037941;28;19917;-76
2022/10/04 14:11:50;;;;;;;6.50;2.88;;;35.40;83.20;;;;;;5036054;28;20083;-77
2022/10/04 14:14:39;;;;;;;6.10;2.00;;;35.50;83.60;;;;;;5035509;28;20044;-77
2022/10/04 14:17:21;;;;;;;4.93;2.03;;;34.80;84.20;;;;;;5037578;28;20527;-77